createdAt,value
2022-09-23T00:04:53.670Z,39.17
2022-09-23T00:09:58.851Z,39.01
2022-09-23T00:15:02.427Z,39.82
2022-09-23T00:20:06.767Z,39.79
2022-09-23T00:25:13.088Z,39.97
2022-09-23T00:30:16.614Z,39.85
2022-09-23T00:35:20.408Z,39.95
2022-09-23T00:40:25.660Z,39.77
2022-09-23T00:45:30.487Z,39.91
2022-09-23T00:50:34.868Z,39.67
2022-09-23T00:55:43.279Z,39.93
2022-09-23T01:00:46.943Z,40.21
2022-09-23T01:05:50.934Z,40.20
2022-09-23T01:11:05.329Z,39.97
2022-09-23T01:16:16.725Z,40.64
2022-09-23T01:21:31.223Z,40.37
2022-09-23T01:27:06.431Z,41.28
2022-09-23T01:32:18.874Z,42.78
2022-09-23T01:37:27.082Z,42.69
2022-09-23T01:42:36.975Z,43.15
2022-09-23T01:47:47.854Z,43.23
2022-09-23T01:52:56.129Z,43.48
2022-09-23T01:58:05.729Z,43.68
2022-09-23T02:03:16.225Z,42.77
2022-09-23T02:08:25.133Z,42.97
2022-09-23T02:13:32.582Z,42.46
2022-09-23T02:18:45.082Z,43.71
2022-09-23T02:23:53.140Z,42.45
2022-09-23T02:29:07.451Z,43.63
2022-09-23T02:34:33.555Z,42.76
2022-09-23T02:39:43.038Z,43.35
2022-09-23T02:44:46.646Z,42.61
2022-09-23T02:49:52.018Z,43.37
2022-09-23T02:54:55.638Z,42.42
2022-09-23T02:59:59.311Z,42.00
2022-09-23T03:05:12.286Z,42.32
2022-09-23T03:10:21.787Z,42.44
2022-09-23T03:15:34.180Z,43.60
2022-09-23T03:20:44.896Z,39.82
2022-09-23T03:25:51.030Z,40.73
2022-09-23T03:30:55.522Z,41.15
2022-09-23T03:36:05.355Z,41.38
2022-09-23T03:41:11.927Z,41.60
2022-09-23T03:46:15.523Z,40.69
2022-09-23T03:51:24.141Z,40.88
2022-09-23T03:56:27.678Z,40.73
2022-09-23T04:01:31.229Z,40.60
2022-09-23T04:06:36.585Z,41.37
2022-09-23T04:11:40.132Z,41.82
2022-09-23T04:16:43.692Z,42.03
2022-09-23T04:21:49.326Z,44.94
2022-09-23T04:26:53.845Z,44.07
2022-09-23T04:31:57.487Z,44.21
2022-09-23T04:37:03.070Z,46.43
2022-09-23T04:42:06.870Z,47.04
2022-09-23T04:47:10.409Z,46.98
2022-09-23T04:52:15.571Z,47.33
2022-09-23T04:57:19.110Z,47.93
2022-09-23T05:02:22.730Z,49.05
2022-09-23T05:07:28.579Z,50.04
2022-09-23T05:12:32.152Z,50.40
2022-09-23T05:17:35.697Z,49.95
2022-09-23T05:22:40.882Z,50.54
2022-09-23T05:27:44.425Z,50.61
2022-09-23T05:32:47.930Z,50.96
2022-09-23T05:37:53.075Z,51.80
2022-09-23T05:42:56.609Z,51.66
2022-09-23T05:48:00.152Z,52.21
2022-09-23T05:53:05.346Z,52.43
2022-09-23T05:58:08.874Z,52.93
2022-09-23T06:03:14.427Z,53.36
2022-09-23T06:08:19.766Z,53.92
2022-09-23T06:13:23.311Z,53.94
2022-09-23T06:18:26.841Z,53.92
2022-09-23T06:23:32.376Z,55.24
2022-09-23T06:28:38.039Z,55.08
2022-09-23T06:33:40.819Z,56.70
2022-09-23T06:38:46.008Z,56.16
2022-09-23T06:43:49.721Z,56.17
2022-09-23T06:48:53.222Z,56.60
2022-09-23T06:53:58.428Z,57.46
2022-09-23T06:59:01.990Z,56.91
2022-09-23T07:04:05.707Z,57.58
2022-09-23T07:09:11.741Z,57.80
2022-09-23T07:14:15.568Z,58.11
2022-09-23T07:19:19.103Z,58.09
2022-09-23T07:24:25.243Z,58.85
2022-09-23T07:29:31.247Z,58.01
2022-09-23T07:34:38.609Z,58.71
2022-09-23T07:39:44.563Z,59.26
2022-09-23T07:44:48.133Z,58.77
2022-09-23T07:49:51.705Z,59.35
2022-09-23T07:54:57.867Z,60.33
2022-09-23T08:00:01.438Z,60.32
2022-09-23T08:05:05.270Z,60.32
2022-09-23T08:10:10.986Z,61.12
2022-09-23T08:15:13.765Z,61.22
2022-09-23T08:20:18.181Z,60.45
2022-09-23T08:25:23.343Z,61.63
2022-09-23T08:30:27.657Z,61.61
2022-09-23T08:35:31.248Z,61.55
2022-09-23T08:40:39.771Z,62.87
2022-09-23T08:45:45.615Z,62.99
2022-09-23T08:50:54.205Z,62.67
2022-09-23T08:56:01.922Z,63.40
2022-09-23T09:01:17.322Z,63.63
2022-09-23T09:06:27.015Z,63.92
2022-09-23T09:11:36.662Z,64.51
2022-09-23T09:17:00.066Z,65.11
2022-09-23T09:22:08.391Z,64.51
2022-09-23T09:27:14.561Z,64.61
2022-09-23T09:32:26.558Z,64.99
2022-09-23T09:37:35.296Z,65.51
2022-09-23T09:42:41.851Z,65.90
2022-09-23T09:47:52.364Z,66.21
2022-09-23T09:53:17.211Z,67.02
2022-09-23T09:58:22.628Z,66.42
2022-09-23T10:03:40.102Z,66.81
2022-09-23T10:08:49.981Z,66.62
2022-09-23T10:14:06.529Z,67.94
2022-09-23T10:19:18.133Z,68.85
2022-09-23T10:24:24.127Z,67.77
2022-09-23T10:29:33.808Z,69.21
2022-09-23T10:34:37.323Z,68.33
2022-09-23T10:39:41.599Z,67.48
2022-09-23T10:45:02.325Z,69.10
2022-09-23T10:50:36.329Z,68.84
2022-09-23T10:56:05.367Z,69.34
2022-09-23T11:01:27.956Z,69.07
2022-09-23T11:06:38.296Z,68.53
2022-09-23T11:11:52.956Z,69.83
2022-09-23T11:17:27.982Z,70.37
2022-09-23T11:22:50.479Z,70.48
2022-09-23T11:28:18.653Z,70.71
2022-09-23T11:33:42.450Z,70.70
2022-09-23T11:38:50.395Z,69.58
2022-09-23T11:44:00.123Z,70.31
2022-09-23T11:49:13.079Z,71.48
2022-09-23T11:54:21.461Z,71.66
2022-09-23T11:59:40.001Z,70.64
2022-09-23T12:04:57.214Z,71.23
2022-09-23T12:10:06.134Z,70.78
2022-09-23T12:15:18.346Z,70.10
2022-09-23T12:20:51.229Z,71.59
2022-09-23T12:25:56.798Z,71.34
2022-09-23T12:31:02.833Z,72.07
2022-09-23T12:36:10.566Z,73.23
2022-09-23T12:41:24.968Z,72.45
2022-09-23T12:46:28.931Z,71.40
2022-09-23T12:51:34.863Z,71.12
2022-09-23T12:57:01.468Z,73.34
2022-09-23T13:02:29.508Z,74.33
2022-09-23T13:07:34.972Z,72.89
2022-09-23T13:12:43.438Z,73.26
2022-09-23T13:17:47.028Z,71.84
2022-09-23T13:23:22.493Z,72.23
2022-09-23T13:28:34.003Z,71.88
2022-09-23T13:33:43.562Z,72.38
2022-09-23T13:38:48.760Z,72.93
2022-09-23T13:43:55.398Z,73.36
2022-09-23T13:48:59.438Z,72.58
2022-09-23T13:54:05.910Z,71.78
2022-09-23T13:59:23.465Z,70.83
2022-09-23T14:04:27.462Z,69.85
2022-09-23T14:09:34.578Z,70.78
2022-09-23T14:14:41.507Z,70.24
2022-09-23T14:19:45.346Z,70.88
2022-09-23T14:24:51.119Z,71.94
2022-09-23T14:29:55.088Z,70.26
2022-09-23T14:35:18.597Z,70.69
2022-09-23T14:40:26.617Z,71.17
2022-09-23T14:45:34.539Z,70.91
2022-09-23T14:50:38.462Z,69.33
2022-09-23T14:55:44.784Z,69.29
2022-09-23T15:00:54.110Z,69.86
2022-09-23T15:06:01.615Z,68.43
2022-09-23T15:11:09.574Z,67.47
2022-09-23T15:16:15.238Z,66.35
2022-09-23T15:21:20.823Z,65.34
2022-09-23T15:26:40.467Z,64.19
2022-09-23T15:31:44.050Z,63.28
2022-09-23T15:36:47.979Z,62.32
2022-09-23T15:41:53.421Z,60.61
2022-09-23T15:46:58.559Z,59.02
2022-09-23T15:52:04.085Z,57.56
2022-09-23T15:57:09.488Z,55.97
2022-09-23T16:02:20.607Z,54.93
2022-09-23T16:07:24.139Z,54.41
2022-09-23T16:12:29.339Z,53.20
2022-09-23T16:17:32.860Z,53.04
2022-09-23T16:22:36.752Z,52.02
2022-09-23T16:27:41.951Z,51.93
2022-09-23T16:32:51.760Z,50.93
2022-09-23T16:37:55.488Z,50.83
2022-09-23T16:43:00.660Z,50.39
2022-09-23T16:48:03.557Z,48.91
2022-09-23T16:53:07.169Z,48.40
2022-09-23T16:58:12.521Z,48.05
2022-09-23T17:03:16.076Z,47.33
2022-09-23T17:08:19.761Z,47.28
2022-09-23T17:13:25.026Z,46.38
2022-09-23T17:18:28.787Z,46.15
2022-09-23T17:23:33.286Z,46.33
2022-09-23T17:28:38.478Z,46.40
2022-09-23T17:33:42.010Z,46.70
2022-09-23T17:38:46.190Z,46.96
2022-09-23T17:43:55.344Z,46.77
2022-09-23T17:48:59.262Z,45.90
2022-09-23T17:54:02.807Z,45.82
2022-09-23T17:59:10.695Z,45.04
2022-09-23T18:04:14.322Z,45.43
2022-09-23T18:09:18.220Z,45.41
2022-09-23T18:14:23.964Z,45.55
2022-09-23T18:19:27.529Z,44.41
2022-09-23T18:24:33.091Z,44.04
2022-09-23T18:29:38.874Z,43.67
2022-09-23T18:34:42.428Z,43.56
2022-09-23T18:39:45.977Z,43.12
2022-09-23T18:44:51.206Z,42.36
2022-09-23T18:49:54.733Z,41.31
2022-09-23T18:54:58.259Z,40.79
2022-09-23T19:00:03.989Z,39.32
2022-09-23T19:05:08.482Z,39.91
2022-09-23T19:10:11.352Z,38.38
2022-09-23T19:15:16.653Z,38.14
2022-09-23T19:20:20.156Z,36.59
2022-09-23T19:25:23.684Z,35.81
2022-09-23T19:30:28.865Z,34.30
2022-09-23T19:35:32.436Z,34.36
2022-09-23T19:40:36.477Z,34.33
2022-09-23T19:45:41.772Z,34.92
2022-09-23T19:50:47.927Z,33.76
2022-09-23T19:55:51.450Z,34.35
2022-09-23T20:00:56.672Z,33.03
2022-09-23T20:06:00.275Z,32.72
2022-09-23T20:11:08.462Z,31.64
2022-09-23T20:16:15.780Z,31.01
2022-09-23T20:21:19.502Z,30.85
2022-09-23T20:26:23.087Z,30.78
2022-09-23T20:31:28.977Z,30.68
2022-09-23T20:36:32.607Z,30.59
2022-09-23T20:41:37.766Z,31.05
2022-09-23T20:46:47.935Z,29.02
2022-09-23T20:51:52.281Z,30.44
2022-09-23T20:56:55.806Z,29.10
2022-09-23T21:02:03.213Z,28.61
2022-09-23T21:07:06.791Z,29.27
2022-09-23T21:12:10.305Z,29.87
2022-09-23T21:17:15.470Z,29.48
2022-09-23T21:22:19.010Z,29.32
2022-09-23T21:27:22.516Z,30.01
2022-09-23T21:32:27.691Z,28.68
2022-09-23T21:37:31.227Z,28.50
2022-09-23T21:42:34.742Z,28.90
2022-09-23T21:47:40.876Z,27.22
2022-09-23T21:52:44.492Z,28.37
2022-09-23T21:57:48.040Z,27.85
2022-09-23T22:02:53.211Z,27.84
2022-09-23T22:07:56.758Z,27.54
2022-09-23T22:13:00.300Z,28.61
2022-09-23T22:18:05.652Z,28.19
2022-09-23T22:23:09.154Z,28.22
2022-09-23T22:28:12.694Z,27.93
2022-09-23T22:33:19.242Z,26.66
2022-09-23T22:38:22.767Z,27.43
2022-09-23T22:43:26.336Z,27.97
2022-09-23T22:48:31.831Z,26.99
2022-09-23T22:53:35.349Z,27.52
2022-09-23T22:58:38.865Z,27.57
2022-09-23T23:03:44.049Z,27.38
2022-09-23T23:08:47.613Z,27.03
2022-09-23T23:13:51.463Z,27.70
2022-09-23T23:18:56.708Z,27.33
2022-09-23T23:24:00.698Z,28.21
2022-09-23T23:29:03.516Z,27.69
2022-09-23T23:34:11.601Z,28.81
2022-09-23T23:39:15.514Z,28.86
2022-09-23T23:44:19.033Z,28.97
2022-09-23T23:49:24.218Z,29.05
2022-09-23T23:54:27.887Z,29.28
2022-09-23T23:59:31.459Z,29.65
